Ida Theresa — V7RQ9 — position and weather

sailwx.info

Track history (hours):
 
Tides and Currents Weather Stations Pressure Air Temp Water Temp Dewpoint Dewpoint Depression Visibility Wind Speed Wind Dir Waves Ship Positions

Ida Theresa

Last reported at 2016-Feb-10 16:03 UTC. Time now 2016-Feb-14 08:10 UTC.
Position N 27°39' W 015°16'.

Length 121 m; draft 9 m.

Type: Ship. MMSI: 538090386.

Date/timePositionNaut miles runAvg speedWind from/ knotsBaromVisibWave heightAir tempDewpointWater temp
2016-Feb-10 16:03N 27°39' W 015°16'611.5
2016-Feb-10 15:33N 27°44' W 015°15'1211.8
2016-Feb-10 14:33N 27°56' W 015°16'1211.7
2016-Feb-10 13:33N 28°06' W 015°21'4 3.4
2016-Feb-10 12:27N 28°09' W 015°24'0 0.0
2016-Feb-10 11:27N 28°09' W 015°24'0 0.0
2016-Feb-10 10:27N 28°09' W 015°24'0 0.0
2016-Feb-10 09:30N 28°09' W 015°24'0 0.0
2016-Feb-10 08:30N 28°09' W 015°24'0 0.0
2016-Feb-10 07:30N 28°09' W 015°24'0 0.0
2016-Feb-10 06:30N 28°09' W 015°24'0 0.0
2016-Feb-10 05:33N 28°09' W 015°24'0 0.0
2016-Feb-10 04:33N 28°09' W 015°24'1 1.1
2016-Feb-10 03:33N 28°09' W 015°23'4 4.2
2016-Feb-10 02:33N 28°08' W 015°18'1212.2
2016-Feb-10 01:33N 28°10' W 015°05'1110.9
2016-Feb-10 00:33N 28°18' W 014°56'1312.7
2016-Feb-09 23:33N 28°30' W 014°52'1212.5
2016-Feb-09 22:34N 28°42' W 014°49'1212.4
2016-Feb-09 21:33N 28°54' W 014°46'1312.5
2016-Feb-09 20:33N 29°06' W 014°43'1312.7
2016-Feb-09 19:33N 29°19' W 014°40'1312.6
2016-Feb-09 18:30N 29°32' W 014°37'1212.6
2016-Feb-09 17:33N 29°43' W 014°33'1512.6
2016-Feb-09 16:24N 29°57' W 014°30'1112.6
2016-Feb-09 15:33N 30°08' W 014°27'  
2016-Feb-04 02:07N 50°29' W 000°05'1811.5
2016-Feb-04 00:33N 50°34' E 000°22'1211.8
2016-Feb-03 23:33N 50°39' E 000°39'1212.4
2016-Feb-03 22:33N 50°46' E 000°54'1512.0
2016-Feb-03 21:19N 50°56' E 001°13'911.6
2016-Feb-03 20:33N 51°02' E 001°23'1211.7
2016-Feb-03 19:33N 51°09' E 001°37'1211.5
2016-Feb-03 18:33N 51°18' E 001°49'1312.7
2016-Feb-03 17:34N 51°29' E 001°59'1413.1
2016-Feb-03 16:31N 51°39' E 002°14'5511.0
2016-Feb-03 11:30N 52°03' E 003°35'910.0
2016-Feb-03 10:33N 52°03' E 003°50'9 9.3
2016-Feb-03 09:33N 51°59' E 004°04'8 7.7
2016-Feb-03 08:34N 51°55' E 004°14'4 4.0
2016-Feb-03 07:31N 51°53' E 004°21'0 0.0
2016-Feb-03 04:31N 51°53' E 004°21'0 0.0
2016-Feb-03 01:31N 51°53' E 004°21'0 0.0
2016-Feb-03 00:22N 51°53' E 004°21'0 0.0
2016-Feb-02 23:10N 51°53' E 004°21'0 0.0
2016-Feb-02 22:31N 51°53' E 004°21'0 0.0
2016-Feb-02 21:31N 51°53' E 004°21'0 0.0
2016-Feb-02 20:25N 51°53' E 004°21'0 0.0
2016-Feb-02 19:31N 51°53' E 004°21'0 0.0
2016-Feb-02 18:28N 51°53' E 004°21'0 0.0
2016-Feb-02 17:31N 51°53' E 004°21'0 0.0
2016-Feb-02 16:28N 51°53' E 004°21'0 0.0
2016-Feb-02 15:31N 51°53' E 004°21'0 0.0
2016-Feb-02 14:31N 51°53' E 004°21'0 0.0
2016-Feb-02 13:31N 51°53' E 004°21'0 0.1
2016-Feb-02 12:33N 51°53' E 004°21'8 7.5
2016-Feb-02 11:34N 51°57' E 004°10'9 9.3
2016-Feb-02 10:33N 52°00' E 003°56'1111.3
2016-Feb-02 09:33N 52°04' E 003°39'125 6.6
2016-Feb-01 14:32N 54°03' E 004°42'5 5.6
2016-Feb-01 13:33N 54°05' E 004°51'6 5.7
2016-Feb-01 12:33N 54°05' E 005°00'7 6.8
2016-Feb-01 11:34N 54°06' E 005°12'8 8.1
2016-Feb-01 10:34N 54°07' E 005°26'10 9.6
2016-Feb-01 09:33N 54°08' E 005°42'5211.8
2016-Feb-01 05:10N 54°12' E 007°10'711.9
2016-Feb-01 04:33N 54°12' E 007°23'1111.1
2016-Feb-01 03:33N 54°09' E 007°41'1111.1
2016-Feb-01 02:33N 54°04' E 007°58'1010.0
2016-Feb-01 01:33N 54°00' E 008°14'9 9.0
2016-Feb-01 00:33N 53°59' E 008°29'1110.7
2016-Jan-31 23:34N 53°52' E 008°43'1312.8
2016-Jan-31 22:33N 53°53' E 009°05'3 2.6
2016-Jan-31 21:33N 53°54' E 009°09'6 5.8
2016-Jan-31 20:33N 53°58' E 009°16'  
Track history (hours):
 
Tides and Currents Weather Stations Pressure Air Temp Water Temp Dewpoint Dewpoint Depression Visibility Wind Speed Wind Dir Waves Ship Positions

Ida Theresa

Last reported at 2016-Feb-10 16:03 UTC. Time now 2016-Feb-14 08:10 UTC.
Position N 27°39' W 015°16'.

Length 121 m; draft 9 m.

Type: Ship. MMSI: 538090386.

Date/timePositionNaut miles runAvg speedWind from/ knotsBaromVisibWave heightAir tempDewpointWater temp
2016-Feb-10 16:03N 27°39' W 015°16'611.5
2016-Feb-10 15:33N 27°44' W 015°15'1211.8
2016-Feb-10 14:33N 27°56' W 015°16'1211.7
2016-Feb-10 13:33N 28°06' W 015°21'4 3.4
2016-Feb-10 12:27N 28°09' W 015°24'0 0.0
2016-Feb-10 11:27N 28°09' W 015°24'0 0.0
2016-Feb-10 10:27N 28°09' W 015°24'0 0.0
2016-Feb-10 09:30N 28°09' W 015°24'0 0.0
2016-Feb-10 08:30N 28°09' W 015°24'0 0.0
2016-Feb-10 07:30N 28°09' W 015°24'0 0.0
2016-Feb-10 06:30N 28°09' W 015°24'0 0.0
2016-Feb-10 05:33N 28°09' W 015°24'0 0.0
2016-Feb-10 04:33N 28°09' W 015°24'1 1.1
2016-Feb-10 03:33N 28°09' W 015°23'4 4.2
2016-Feb-10 02:33N 28°08' W 015°18'1212.2
2016-Feb-10 01:33N 28°10' W 015°05'1110.9
2016-Feb-10 00:33N 28°18' W 014°56'1312.7
2016-Feb-09 23:33N 28°30' W 014°52'1212.5
2016-Feb-09 22:34N 28°42' W 014°49'1212.4
2016-Feb-09 21:33N 28°54' W 014°46'1312.5
2016-Feb-09 20:33N 29°06' W 014°43'1312.7
2016-Feb-09 19:33N 29°19' W 014°40'1312.6
2016-Feb-09 18:30N 29°32' W 014°37'1212.6
2016-Feb-09 17:33N 29°43' W 014°33'1512.6
2016-Feb-09 16:24N 29°57' W 014°30'1112.6
2016-Feb-09 15:33N 30°08' W 014°27'  
2016-Feb-04 02:07N 50°29' W 000°05'1811.5
2016-Feb-04 00:33N 50°34' E 000°22'1211.8
2016-Feb-03 23:33N 50°39' E 000°39'1212.4
2016-Feb-03 22:33N 50°46' E 000°54'1512.0
2016-Feb-03 21:19N 50°56' E 001°13'911.6
2016-Feb-03 20:33N 51°02' E 001°23'1211.7
2016-Feb-03 19:33N 51°09' E 001°37'1211.5
2016-Feb-03 18:33N 51°18' E 001°49'1312.7
2016-Feb-03 17:34N 51°29' E 001°59'1413.1
2016-Feb-03 16:31N 51°39' E 002°14'5511.0
2016-Feb-03 11:30N 52°03' E 003°35'910.0
2016-Feb-03 10:33N 52°03' E 003°50'9 9.3
2016-Feb-03 09:33N 51°59' E 004°04'8 7.7
2016-Feb-03 08:34N 51°55' E 004°14'4 4.0
2016-Feb-03 07:31N 51°53' E 004°21'0 0.0
2016-Feb-03 04:31N 51°53' E 004°21'0 0.0
2016-Feb-03 01:31N 51°53' E 004°21'0 0.0
2016-Feb-03 00:22N 51°53' E 004°21'0 0.0
2016-Feb-02 23:10N 51°53' E 004°21'0 0.0
2016-Feb-02 22:31N 51°53' E 004°21'0 0.0
2016-Feb-02 21:31N 51°53' E 004°21'0 0.0
2016-Feb-02 20:25N 51°53' E 004°21'0 0.0
2016-Feb-02 19:31N 51°53' E 004°21'0 0.0
2016-Feb-02 18:28N 51°53' E 004°21'0 0.0
2016-Feb-02 17:31N 51°53' E 004°21'0 0.0
2016-Feb-02 16:28N 51°53' E 004°21'0 0.0
2016-Feb-02 15:31N 51°53' E 004°21'0 0.0
2016-Feb-02 14:31N 51°53' E 004°21'0 0.0
2016-Feb-02 13:31N 51°53' E 004°21'0 0.1
2016-Feb-02 12:33N 51°53' E 004°21'8 7.5
2016-Feb-02 11:34N 51°57' E 004°10'9 9.3
2016-Feb-02 10:33N 52°00' E 003°56'1111.3
2016-Feb-02 09:33N 52°04' E 003°39'125 6.6
2016-Feb-01 14:32N 54°03' E 004°42'5 5.6
2016-Feb-01 13:33N 54°05' E 004°51'6 5.7
2016-Feb-01 12:33N 54°05' E 005°00'7 6.8
2016-Feb-01 11:34N 54°06' E 005°12'8 8.1
2016-Feb-01 10:34N 54°07' E 005°26'10 9.6
2016-Feb-01 09:33N 54°08' E 005°42'5211.8
2016-Feb-01 05:10N 54°12' E 007°10'711.9
2016-Feb-01 04:33N 54°12' E 007°23'1111.1
2016-Feb-01 03:33N 54°09' E 007°41'1111.1
2016-Feb-01 02:33N 54°04' E 007°58'1010.0
2016-Feb-01 01:33N 54°00' E 008°14'9 9.0
2016-Feb-01 00:33N 53°59' E 008°29'1110.7
2016-Jan-31 23:34N 53°52' E 008°43'1312.8
2016-Jan-31 22:33N 53°53' E 009°05'3 2.6
2016-Jan-31 21:33N 53°54' E 009°09'6 5.8
2016-Jan-31 20:33N 53°58' E 009°16'  

Dump ship's entire track history